createdAt,value
2018-02-18T00:00:43.519Z,60.50
2018-02-18T00:05:44.503Z,65.47
2018-02-18T00:10:45.496Z,48.90
2018-02-18T00:15:46.503Z,55.37
2018-02-18T00:20:48.236Z,57.87
2018-02-18T00:25:49.235Z,63.07
2018-02-18T00:30:50.240Z,64.13
2018-02-18T00:35:51.233Z,57.73
2018-02-18T00:40:52.247Z,56.70
2018-02-18T00:45:53.259Z,54.57
2018-02-18T00:50:54.272Z,65.00
2018-02-18T00:55:55.256Z,62.97
2018-02-18T01:00:56.264Z,66.27
2018-02-18T01:05:57.996Z,56.30
2018-02-18T01:10:58.990Z,98.60
2018-02-18T01:15:59.991Z,98.90
2018-02-18T01:21:01.001Z,107.47
2018-02-18T01:26:01.996Z,133.47
2018-02-18T01:31:03.723Z,115.10
2018-02-18T01:36:04.720Z,70.40
2018-02-18T01:41:05.764Z,87.20
2018-02-18T01:46:07.498Z,80.27
2018-02-18T01:51:08.487Z,136.07
2018-02-18T01:56:09.475Z,92.13
2018-02-18T02:01:10.479Z,67.53
2018-02-18T02:06:11.484Z,123.20
2018-02-18T02:11:12.463Z,114.73
2018-02-18T02:16:13.456Z,118.20
2018-02-18T02:21:15.197Z,91.53
2018-02-18T02:26:16.204Z,112.67
2018-02-18T02:31:17.216Z,92.67
2018-02-18T02:36:18.988Z,92.50
2018-02-18T02:41:19.971Z,80.50
2018-02-18T02:46:20.973Z,69.27
2018-02-18T02:51:21.971Z,77.77
2018-02-18T02:56:23.725Z,72.00
2018-02-18T03:01:24.727Z,67.47
2018-02-18T03:06:25.779Z,64.03
2018-02-18T03:11:26.775Z,64.07
2018-02-18T03:16:27.767Z,62.80
2018-02-18T03:21:28.780Z,59.27
2018-02-18T03:26:30.520Z,67.53
2018-02-18T03:36:39.349Z,66.47
2018-02-18T03:41:40.347Z,81.53
2018-02-18T03:46:41.343Z,63.63
2018-02-18T03:51:42.339Z,68.53
2018-02-18T03:56:43.319Z,54.23
2018-02-18T04:01:44.328Z,57.37
2018-02-18T04:06:46.059Z,54.73
2018-02-18T04:11:47.060Z,58.50
2018-02-18T04:16:48.047Z,57.93
2018-02-18T04:21:49.047Z,53.07
2018-02-18T04:26:50.035Z,56.10
2018-02-18T04:31:51.036Z,72.07
2018-02-18T04:36:52.763Z,77.43
2018-02-18T04:41:53.767Z,70.90
2018-02-18T04:46:54.772Z,70.60
2018-02-18T04:51:55.775Z,73.30
2018-02-18T04:56:57.523Z,68.13
2018-02-18T05:01:58.516Z,68.87
2018-02-18T05:06:59.517Z,70.33
2018-02-18T05:17:07.415Z,75.30
2018-02-18T05:22:08.411Z,56.83
2018-02-18T05:27:09.403Z,66.13
2018-02-18T05:32:10.398Z,61.07
2018-02-18T05:37:12.131Z,67.13
2018-02-18T05:42:13.127Z,65.20
2018-02-18T05:47:14.126Z,58.17
2018-02-18T05:52:15.136Z,69.67
2018-02-18T05:57:16.869Z,54.43
2018-02-18T06:02:17.869Z,70.00
2018-02-18T06:07:18.855Z,64.60
2018-02-18T06:12:19.851Z,68.03
2018-02-18T06:17:20.843Z,68.03
2018-02-18T06:22:21.822Z,54.60
2018-02-18T06:27:22.819Z,62.53
2018-02-18T06:32:23.824Z,57.00
2018-02-18T06:37:25.554Z,58.00
2018-02-18T06:42:26.543Z,53.97
2018-02-18T06:47:27.552Z,60.97
2018-02-18T06:52:28.551Z,55.97
2018-02-18T06:57:29.547Z,70.07
2018-02-18T07:02:31.271Z,66.93
2018-02-18T07:07:32.276Z,66.17
2018-02-18T07:12:33.254Z,52.97
2018-02-18T07:17:34.270Z,53.67
2018-02-18T07:22:35.257Z,46.27
2018-02-18T07:27:36.241Z,46.53
2018-02-18T07:32:37.247Z,57.30
2018-02-18T07:37:38.986Z,47.13
2018-02-18T07:42:39.987Z,48.43
2018-02-18T07:47:40.976Z,54.00
2018-02-18T07:52:42.771Z,52.40
2018-02-18T07:57:43.771Z,48.13
2018-02-18T08:02:44.777Z,41.70
2018-02-18T08:07:46.543Z,45.30
2018-02-18T08:12:47.520Z,45.77
2018-02-18T08:17:48.556Z,38.13
2018-02-18T08:22:49.524Z,43.50
2018-02-18T08:27:51.252Z,40.73
2018-02-18T08:32:52.251Z,42.00
2018-02-18T08:37:53.238Z,42.23
2018-02-18T08:42:54.240Z,41.97
2018-02-18T08:47:55.237Z,42.57
2018-02-18T08:52:56.234Z,39.47
2018-02-18T08:57:57.990Z,41.37
2018-02-18T09:02:58.991Z,41.00
2018-02-18T09:07:59.989Z,38.83
2018-02-18T09:13:01.732Z,41.30
2018-02-18T09:18:02.743Z,37.90
2018-02-18T09:23:03.728Z,42.50
2018-02-18T09:28:04.750Z,42.50
2018-02-18T09:33:06.494Z,37.10
2018-02-18T09:38:07.492Z,39.97
2018-02-18T09:43:08.483Z,38.97
2018-02-18T09:48:09.485Z,43.63
2018-02-18T09:53:11.228Z,36.60
2018-02-18T09:58:12.227Z,37.30
2018-02-18T10:03:13.223Z,40.17
2018-02-18T10:08:14.229Z,41.60
2018-02-18T10:13:15.211Z,43.13
2018-02-18T10:18:16.208Z,41.73
2018-02-18T10:23:17.967Z,42.50
2018-02-18T10:28:18.971Z,50.53
2018-02-18T10:33:19.992Z,48.73
2018-02-18T10:38:21.106Z,52.80
2018-02-18T10:43:22.146Z,51.97
2018-02-18T10:48:23.904Z,52.27
2018-02-18T10:53:24.888Z,56.20
2018-02-18T10:58:25.871Z,53.80
2018-02-18T11:03:26.867Z,53.50
2018-02-18T11:08:27.861Z,60.83
2018-02-18T11:13:28.855Z,60.57
2018-02-18T11:18:30.610Z,57.07
2018-02-18T11:23:31.596Z,59.83
2018-02-18T11:28:32.587Z,60.67
2018-02-18T11:33:33.588Z,57.40
2018-02-18T11:38:34.607Z,51.10
2018-02-18T11:43:35.601Z,49.57
2018-02-18T11:48:36.600Z,54.53
2018-02-18T11:53:37.583Z,57.30
2018-02-18T11:58:38.595Z,66.70
2018-02-18T12:03:39.592Z,57.50
2018-02-18T12:08:41.340Z,69.87
2018-02-18T12:13:42.352Z,59.17
2018-02-18T12:18:43.368Z,51.77
2018-02-18T12:23:45.115Z,53.23
2018-02-18T12:28:46.106Z,50.70
2018-02-18T12:33:47.109Z,53.27
2018-02-18T12:38:48.122Z,102.07
2018-02-18T12:43:49.187Z,137.03
2018-02-18T12:48:50.207Z,158.53
2018-02-18T12:53:58.240Z,95.50
2018-02-18T12:58:59.219Z,61.00
2018-02-18T13:04:00.224Z,55.70
2018-02-18T13:09:01.248Z,51.00
2018-02-18T13:14:08.572Z,58.13
2018-02-18T13:19:09.584Z,60.00
2018-02-18T13:24:11.323Z,50.83
2018-02-18T13:29:12.331Z,56.03
2018-02-18T13:34:13.332Z,58.87
2018-02-18T13:39:14.324Z,53.00
2018-02-18T13:44:16.068Z,60.30
2018-02-18T13:49:17.055Z,53.43
2018-02-18T13:54:18.068Z,55.13
2018-02-18T13:59:19.067Z,57.97
2018-02-18T14:04:20.079Z,54.90
2018-02-18T14:09:21.086Z,58.47
2018-02-18T14:14:22.079Z,55.80
2018-02-18T14:19:23.079Z,53.60
2018-02-18T14:24:24.095Z,58.57
2018-02-18T14:29:25.884Z,53.30
2018-02-18T14:34:26.855Z,49.83
2018-02-18T14:39:27.835Z,48.80
2018-02-18T14:44:41.314Z,55.27
2018-02-18T14:49:54.751Z,49.67
2018-02-18T14:55:02.648Z,51.77
2018-02-18T15:00:04.391Z,58.67
2018-02-18T15:05:05.404Z,52.83
2018-02-18T15:10:06.408Z,57.20
2018-02-18T15:15:07.407Z,55.03
2018-02-18T15:20:09.143Z,50.73
2018-02-18T15:25:10.139Z,56.83
2018-02-18T15:30:11.131Z,55.43
2018-02-18T15:35:12.137Z,49.57
2018-02-18T15:40:13.135Z,58.13
2018-02-18T15:45:14.147Z,69.43
2018-02-18T15:50:15.143Z,49.83
2018-02-18T15:55:16.157Z,47.20
2018-02-18T16:00:17.132Z,52.10
2018-02-18T16:05:18.114Z,48.57
2018-02-18T16:10:19.127Z,51.27
2018-02-18T16:15:20.911Z,78.40
2018-02-18T16:20:21.899Z,51.90
2018-02-18T16:25:23.711Z,59.63
2018-02-18T16:30:24.656Z,60.10
2018-02-18T16:35:25.663Z,55.80
2018-02-18T16:40:26.665Z,77.67
2018-02-18T16:45:28.412Z,78.23
2018-02-18T16:50:29.403Z,60.83
2018-02-18T16:55:30.412Z,63.23
2018-02-18T17:00:31.403Z,61.80
2018-02-18T17:05:33.143Z,64.87
2018-02-18T17:10:34.163Z,52.30
2018-02-18T17:15:35.167Z,53.87
2018-02-18T17:20:36.908Z,48.73
2018-02-18T17:25:37.941Z,66.37
2018-02-18T17:30:38.932Z,78.20
2018-02-18T17:35:40.664Z,55.33
2018-02-18T17:40:41.667Z,47.87
2018-02-18T17:45:42.679Z,36.13
2018-02-18T17:50:43.692Z,41.83
2018-02-18T17:55:44.700Z,35.53
2018-02-18T18:00:45.679Z,42.20
2018-02-18T18:05:46.676Z,43.23
2018-02-18T18:10:47.677Z,41.50
2018-02-18T18:15:48.681Z,46.70
2018-02-18T18:20:49.693Z,50.60
2018-02-18T18:25:50.688Z,177.57
2018-02-18T18:30:51.704Z,49.30
2018-02-18T18:35:52.696Z,37.50
2018-02-18T18:40:53.727Z,47.10
2018-02-18T18:45:54.740Z,37.73
2018-02-18T18:50:55.735Z,42.33
2018-02-18T18:55:56.735Z,42.03
2018-02-18T19:00:57.723Z,33.40
2018-02-18T19:05:58.719Z,34.53
2018-02-18T19:11:00.464Z,39.30
2018-02-18T19:16:01.468Z,44.87
2018-02-18T19:21:02.469Z,60.50
2018-02-18T19:26:04.225Z,47.90
2018-02-18T19:31:05.235Z,52.67
2018-02-18T19:36:06.236Z,43.90
2018-02-18T19:41:07.236Z,45.70
2018-02-18T19:46:08.991Z,47.03
2018-02-18T19:51:09.992Z,52.00
2018-02-18T19:56:10.967Z,43.80
2018-02-18T20:01:11.967Z,40.20
2018-02-18T20:06:12.967Z,48.50
2018-02-18T20:11:13.964Z,42.27
2018-02-18T20:16:14.979Z,41.70
2018-02-18T20:21:15.982Z,45.00
2018-02-18T20:26:16.980Z,46.17
2018-02-18T20:31:17.994Z,51.60
2018-02-18T20:36:19.012Z,83.73
2018-02-18T20:41:20.017Z,52.63
2018-02-18T20:46:21.023Z,58.00
2018-02-18T20:51:22.783Z,44.13
2018-02-18T20:56:23.763Z,47.40
2018-02-18T21:01:24.772Z,43.47
2018-02-18T21:06:25.751Z,43.30
2018-02-18T21:11:26.739Z,46.60
2018-02-18T21:16:27.742Z,48.90
2018-02-18T21:21:29.465Z,51.87
2018-02-18T21:26:30.463Z,44.97
2018-02-18T21:31:31.496Z,36.80
2018-02-18T21:36:32.507Z,44.37
2018-02-18T21:41:33.482Z,54.60
2018-02-18T21:46:35.240Z,44.97
2018-02-18T21:51:36.244Z,43.40
2018-02-18T21:56:37.228Z,42.77
2018-02-18T22:01:38.969Z,41.43
2018-02-18T22:06:40.003Z,60.83
2018-02-18T22:11:40.953Z,39.10
2018-02-18T22:16:41.936Z,38.30
2018-02-18T22:21:42.927Z,45.67
2018-02-18T22:26:43.911Z,45.70
2018-02-18T22:31:44.916Z,43.13
2018-02-18T22:36:45.916Z,40.10
2018-02-18T22:41:47.668Z,41.67
2018-02-18T22:46:48.664Z,32.73
2018-02-18T22:51:49.643Z,47.00
2018-02-18T22:56:50.635Z,41.30
2018-02-18T23:01:51.631Z,44.00
2018-02-18T23:06:53.379Z,34.80
2018-02-18T23:11:54.367Z,45.10
2018-02-18T23:16:55.379Z,38.67
2018-02-18T23:21:56.377Z,47.60
2018-02-18T23:26:57.368Z,41.03
2018-02-18T23:31:59.975Z,41.77
2018-02-18T23:37:00.964Z,36.90
2018-02-18T23:42:02.687Z,37.77
2018-02-18T23:47:03.700Z,41.03
2018-02-18T23:52:04.682Z,37.00
2018-02-18T23:57:05.675Z,37.30
